createdAt,value
2023-05-25T00:01:37.356Z,5.20
2023-05-25T00:04:04.663Z,5.80
2023-05-25T00:06:32.678Z,5.50
2023-05-25T00:08:59.908Z,6.70
2023-05-25T00:11:27.134Z,12.80
2023-05-25T00:13:55.138Z,12.30
2023-05-25T00:16:22.077Z,9.50
2023-05-25T00:18:49.181Z,7.20
2023-05-25T00:21:16.319Z,8.00
2023-05-25T00:23:43.409Z,5.30
2023-05-25T00:26:10.532Z,6.60
2023-05-25T00:28:37.594Z,5.60
2023-05-25T00:31:04.909Z,11.00
2023-05-25T00:33:31.926Z,9.60
2023-05-25T00:35:59.662Z,7.00
2023-05-25T00:38:26.684Z,6.40
2023-05-25T00:40:56.653Z,8.40
2023-05-25T00:43:23.693Z,7.60
2023-05-25T00:45:51.295Z,4.20
2023-05-25T00:48:18.566Z,4.50
2023-05-25T00:50:46.064Z,8.30
2023-05-25T00:53:14.199Z,7.30
2023-05-25T00:55:49.937Z,5.40
2023-05-25T00:58:20.998Z,7.10
2023-05-25T01:00:53.587Z,5.90
2023-05-25T01:03:27.480Z,8.00
2023-05-25T01:05:56.814Z,6.40
2023-05-25T01:08:25.203Z,8.10
2023-05-25T01:10:53.762Z,6.20
2023-05-25T01:13:21.275Z,6.90
2023-05-25T01:15:49.404Z,5.70
2023-05-25T01:18:17.784Z,6.60
2023-05-25T01:21:12.783Z,6.50
2023-05-25T01:23:51.110Z,5.20
2023-05-25T01:26:20.306Z,5.80
2023-05-25T01:28:52.257Z,4.40
2023-05-25T01:31:22.145Z,7.00
2023-05-25T01:33:53.413Z,6.40
2023-05-25T01:36:20.531Z,7.40
2023-05-25T01:38:48.623Z,8.00
2023-05-25T01:41:15.684Z,5.00
2023-05-25T01:43:44.013Z,6.50
2023-05-25T01:46:23.401Z,6.00
2023-05-25T01:49:06.637Z,5.70
2023-05-25T01:51:43.480Z,7.60
2023-05-25T01:54:18.748Z,6.10
2023-05-25T01:56:48.468Z,5.00
2023-05-25T01:59:20.611Z,5.40
2023-05-25T02:01:49.789Z,8.60
2023-05-25T02:04:21.683Z,5.30
2023-05-25T02:06:50.875Z,5.10
2023-05-25T02:09:18.966Z,10.90
2023-05-25T02:11:45.988Z,7.40
2023-05-25T02:14:13.217Z,9.10
2023-05-25T02:16:40.206Z,8.60
2023-05-25T02:19:07.309Z,6.00
2023-05-25T02:21:37.738Z,8.10
2023-05-25T02:24:06.046Z,6.30
2023-05-25T02:26:33.174Z,5.80
2023-05-25T02:29:01.409Z,4.70
2023-05-25T02:31:28.859Z,5.90
2023-05-25T02:33:56.380Z,5.40
2023-05-25T02:36:23.835Z,7.10
2023-05-25T02:38:51.921Z,4.50
2023-05-25T02:41:20.096Z,6.10
2023-05-25T02:43:47.546Z,6.50
2023-05-25T02:46:14.594Z,4.80
2023-05-25T02:48:42.798Z,6.80
2023-05-25T02:51:10.082Z,5.20
2023-05-25T02:53:37.346Z,6.20
2023-05-25T02:56:05.030Z,4.80
2023-05-25T02:58:32.929Z,9.10
2023-05-25T03:01:30.419Z,5.90
2023-05-25T03:03:57.691Z,5.60
2023-05-25T03:06:26.273Z,5.40
2023-05-25T03:08:58.676Z,6.50
2023-05-25T03:11:26.308Z,6.40
2023-05-25T03:13:56.150Z,9.20
2023-05-25T03:16:23.548Z,7.10
2023-05-25T03:18:50.937Z,4.50
2023-05-25T03:21:18.238Z,5.00
2023-05-25T03:23:45.624Z,5.60
2023-05-25T03:26:12.657Z,6.40
2023-05-25T03:28:40.061Z,7.70
2023-05-25T03:31:07.185Z,4.50
2023-05-25T03:33:34.478Z,5.80
2023-05-25T03:36:07.118Z,7.60
2023-05-25T03:38:36.098Z,5.90
2023-05-25T03:41:04.026Z,6.30
2023-05-25T03:43:34.344Z,6.90
2023-05-25T03:46:02.422Z,6.80
2023-05-25T03:48:29.538Z,5.70
2023-05-25T03:50:56.687Z,4.90
2023-05-25T03:53:23.869Z,6.50
2023-05-25T03:55:51.583Z,6.40
2023-05-25T03:58:18.749Z,4.80
2023-05-25T04:00:48.650Z,4.40
2023-05-25T04:03:16.214Z,5.10
2023-05-25T04:05:47.013Z,4.50
2023-05-25T04:08:17.617Z,6.80
2023-05-25T04:10:45.708Z,5.00
2023-05-25T04:13:13.726Z,7.20
2023-05-25T04:15:40.907Z,7.10
2023-05-25T04:18:12.405Z,7.30
2023-05-25T04:20:40.230Z,6.40
2023-05-25T04:23:10.046Z,5.60
2023-05-25T04:25:41.805Z,6.60
2023-05-25T04:28:11.882Z,6.30
2023-05-25T04:30:59.165Z,6.00
2023-05-25T04:33:31.217Z,6.90
2023-05-25T04:36:19.016Z,9.00
2023-05-25T04:38:47.452Z,8.50
2023-05-25T04:41:15.217Z,7.30
2023-05-25T04:43:52.840Z,8.40
2023-05-25T04:46:36.683Z,7.20
2023-05-25T04:49:05.133Z,9.00
2023-05-25T04:51:32.580Z,7.90
2023-05-25T04:53:59.811Z,6.80
2023-05-25T04:56:27.884Z,9.90
2023-05-25T04:58:55.015Z,12.20
2023-05-25T05:01:23.578Z,8.10
2023-05-25T05:03:50.928Z,9.90
2023-05-25T05:06:18.030Z,9.40
2023-05-25T05:08:45.441Z,6.70
2023-05-25T05:11:12.829Z,9.10
2023-05-25T05:13:40.126Z,9.90
2023-05-25T05:16:08.153Z,9.90
2023-05-25T05:18:35.259Z,8.70
2023-05-25T05:21:02.425Z,13.00
2023-05-25T05:23:29.766Z,10.60
2023-05-25T05:25:57.186Z,10.80
2023-05-25T05:28:26.850Z,9.40
2023-05-25T05:30:54.030Z,9.60
2023-05-25T05:33:23.273Z,7.40
2023-05-25T05:35:51.878Z,8.00
2023-05-25T05:38:21.621Z,7.60
2023-05-25T05:40:48.777Z,6.00
2023-05-25T05:43:20.483Z,5.00
2023-05-25T05:45:47.938Z,8.00
2023-05-25T05:48:15.756Z,5.70
2023-05-25T05:50:42.982Z,5.70
2023-05-25T05:53:11.520Z,10.60
2023-05-25T05:55:38.566Z,6.70
2023-05-25T05:58:05.888Z,7.10
2023-05-25T06:00:33.504Z,10.60
2023-05-25T06:03:01.010Z,16.00
2023-05-25T06:05:29.167Z,10.70
2023-05-25T06:07:56.556Z,5.20
2023-05-25T06:10:23.573Z,5.10
2023-05-25T06:12:52.248Z,6.10
2023-05-25T06:15:19.633Z,5.50
2023-05-25T06:17:47.689Z,5.80
2023-05-25T06:20:15.595Z,8.70
2023-05-25T06:22:42.880Z,7.40
2023-05-25T06:25:10.609Z,7.10
2023-05-25T06:27:38.113Z,8.30
2023-05-25T06:30:06.203Z,6.70
2023-05-25T06:32:33.922Z,7.00
2023-05-25T06:35:01.826Z,6.00
2023-05-25T06:37:34.692Z,5.00
2023-05-25T06:40:04.704Z,7.40
2023-05-25T06:42:31.908Z,4.90
2023-05-25T06:45:00.017Z,4.80
2023-05-25T06:49:54.244Z,5.40
2023-05-25T06:52:21.318Z,4.60
2023-05-25T06:54:48.445Z,5.00
2023-05-25T06:57:15.593Z,5.90
2023-05-25T06:59:42.701Z,7.00
2023-05-25T07:02:09.919Z,5.00
2023-05-25T07:04:37.586Z,5.00
2023-05-25T07:07:05.782Z,6.90
2023-05-25T07:09:33.167Z,7.00
2023-05-25T07:12:00.698Z,6.20
2023-05-25T07:14:27.749Z,6.10
2023-05-25T07:16:54.853Z,8.10
2023-05-25T07:19:21.873Z,9.40
2023-05-25T07:21:48.852Z,8.10
2023-05-25T07:24:15.928Z,11.90
2023-05-25T07:26:43.959Z,12.00
2023-05-25T07:29:12.131Z,13.00
2023-05-25T07:31:39.212Z,9.60
2023-05-25T07:34:06.130Z,13.70
2023-05-25T07:36:33.122Z,11.40
2023-05-25T07:39:01.096Z,10.60
2023-05-25T07:41:28.344Z,25.20
2023-05-25T07:43:55.601Z,16.90
2023-05-25T07:46:24.692Z,9.30
2023-05-25T07:48:51.885Z,17.40
2023-05-25T07:51:19.123Z,9.60
2023-05-25T07:53:46.293Z,9.70
2023-05-25T07:56:13.508Z,12.40
2023-05-25T07:58:41.194Z,9.00
2023-05-25T08:01:08.246Z,7.70
2023-05-25T08:03:48.358Z,7.40
2023-05-25T08:06:17.368Z,6.10
2023-05-25T08:08:44.717Z,7.20
2023-05-25T08:11:12.208Z,9.30
2023-05-25T08:13:39.124Z,6.50
2023-05-25T08:16:06.350Z,8.50
2023-05-25T08:18:33.387Z,10.60
2023-05-25T08:21:00.737Z,8.80
2023-05-25T08:23:27.923Z,7.70
2023-05-25T08:25:55.088Z,7.50
2023-05-25T08:28:22.394Z,7.70
2023-05-25T08:30:49.661Z,8.60
2023-05-25T08:33:16.720Z,6.00
2023-05-25T08:35:44.111Z,6.40
2023-05-25T08:38:11.404Z,6.00
2023-05-25T08:40:42.204Z,6.90
2023-05-25T08:43:09.307Z,7.30
2023-05-25T08:45:39.428Z,5.60
2023-05-25T08:48:12.227Z,5.70
2023-05-25T08:50:42.065Z,6.00
2023-05-25T08:53:11.460Z,5.60
2023-05-25T08:55:41.986Z,4.90
2023-05-25T08:58:23.407Z,5.40
2023-05-25T09:00:57.989Z,6.70
2023-05-25T09:03:25.608Z,4.90
2023-05-25T09:05:55.830Z,6.00
2023-05-25T09:08:23.881Z,6.60
2023-05-25T09:10:51.732Z,8.00
2023-05-25T09:13:22.063Z,19.60
2023-05-25T09:15:50.123Z,6.60
2023-05-25T09:18:17.330Z,4.80
2023-05-25T09:20:46.948Z,4.50
2023-05-25T09:23:15.653Z,4.70
2023-05-25T09:25:43.965Z,3.90
2023-05-25T09:30:40.995Z,6.10
2023-05-25T09:33:12.497Z,4.80
2023-05-25T09:35:40.446Z,4.10
2023-05-25T09:38:08.091Z,3.70
2023-05-25T09:40:37.666Z,6.40
2023-05-25T09:43:04.831Z,4.10
2023-05-25T09:45:32.194Z,3.70
2023-05-25T09:47:59.658Z,3.90
2023-05-25T09:50:28.534Z,4.00
2023-05-25T09:53:02.142Z,3.60
2023-05-25T09:55:44.004Z,4.10
2023-05-25T09:58:17.671Z,3.70
2023-05-25T10:00:46.021Z,3.80
2023-05-25T10:03:15.673Z,4.20
2023-05-25T10:05:43.104Z,5.40
2023-05-25T10:08:10.980Z,4.20
2023-05-25T10:10:40.402Z,3.70
2023-05-25T10:13:09.009Z,6.90
2023-05-25T10:15:42.637Z,3.70
2023-05-25T10:18:13.911Z,3.20
2023-05-25T10:20:43.799Z,4.00
2023-05-25T10:23:14.366Z,4.10
2023-05-25T10:25:46.755Z,4.80
2023-05-25T10:28:44.047Z,3.80
2023-05-25T10:31:15.890Z,3.20
2023-05-25T10:36:20.193Z,3.70
2023-05-25T10:38:50.445Z,3.10
2023-05-25T10:41:19.860Z,3.30
2023-05-25T10:43:47.768Z,3.50
2023-05-25T10:46:15.599Z,3.60
2023-05-25T10:48:51.259Z,3.90
2023-05-25T10:51:21.754Z,3.50
2023-05-25T10:54:00.521Z,3.50
2023-05-25T10:56:27.442Z,3.30
2023-05-25T10:58:54.582Z,3.60
2023-05-25T11:01:21.998Z,3.20
2023-05-25T11:03:56.372Z,3.40
2023-05-25T11:06:46.748Z,4.80
2023-05-25T11:09:27.762Z,3.70
2023-05-25T11:12:01.545Z,3.00
2023-05-25T11:14:41.749Z,4.00
2023-05-25T11:17:17.855Z,2.90
2023-05-25T11:19:52.877Z,3.60
2023-05-25T11:22:30.145Z,3.20
2023-05-25T11:24:59.382Z,3.00
2023-05-25T11:27:31.808Z,3.00
2023-05-25T11:29:59.420Z,3.10
2023-05-25T11:32:27.683Z,3.00
2023-05-25T11:34:57.690Z,2.90
2023-05-25T11:37:28.187Z,3.30
2023-05-25T11:39:55.450Z,3.00
2023-05-25T11:42:25.992Z,3.00
2023-05-25T11:44:53.185Z,3.10
2023-05-25T11:47:22.970Z,4.00
2023-05-25T11:49:55.019Z,3.20
2023-05-25T11:52:22.813Z,3.00
2023-05-25T11:54:50.098Z,3.00
2023-05-25T11:57:18.004Z,3.00
2023-05-25T11:59:53.444Z,2.80
2023-05-25T12:02:22.031Z,3.10
2023-05-25T12:04:57.819Z,3.40
2023-05-25T12:07:26.454Z,3.30
2023-05-25T12:10:16.223Z,3.10
2023-05-25T12:12:45.813Z,3.40
2023-05-25T12:15:18.303Z,3.00
2023-05-25T12:17:47.656Z,3.10
2023-05-25T12:20:16.757Z,3.40
2023-05-25T12:22:45.513Z,3.20
2023-05-25T12:25:14.191Z,3.50
2023-05-25T12:27:42.169Z,3.40
2023-05-25T12:30:10.574Z,3.00
2023-05-25T12:33:02.573Z,3.50
2023-05-25T12:35:44.647Z,3.90
2023-05-25T12:38:21.138Z,4.40
2023-05-25T12:41:04.979Z,4.20
2023-05-25T12:43:43.311Z,4.30
2023-05-25T12:46:10.730Z,5.30
2023-05-25T12:48:38.126Z,4.00
2023-05-25T12:51:05.681Z,3.90
2023-05-25T12:53:52.184Z,4.40
2023-05-25T12:56:19.339Z,5.20
2023-05-25T12:58:46.352Z,4.10
2023-05-25T13:01:13.491Z,3.80
2023-05-25T13:03:41.010Z,7.30
2023-05-25T13:06:08.308Z,3.80
2023-05-25T13:08:35.364Z,4.20
2023-05-25T13:11:03.284Z,4.70
2023-05-25T13:13:30.275Z,5.40
2023-05-25T13:15:57.779Z,3.90
2023-05-25T13:18:24.910Z,4.50
2023-05-25T13:20:55.145Z,4.30
2023-05-25T13:23:23.661Z,3.70
2023-05-25T13:25:51.238Z,4.50
2023-05-25T13:28:18.376Z,4.80
2023-05-25T13:30:45.702Z,3.70
2023-05-25T13:33:13.278Z,4.20
2023-05-25T13:35:58.128Z,4.90
2023-05-25T13:38:25.958Z,5.60
2023-05-25T13:40:53.248Z,4.90
2023-05-25T13:43:20.389Z,3.70
2023-05-25T13:45:47.857Z,4.00
2023-05-25T13:48:14.955Z,4.30
2023-05-25T13:50:44.541Z,3.90
2023-05-25T13:53:12.572Z,4.90
2023-05-25T13:55:39.861Z,5.80
2023-05-25T13:58:06.882Z,4.40
2023-05-25T14:00:34.054Z,4.40
2023-05-25T14:03:02.032Z,4.60
2023-05-25T14:05:29.885Z,4.20
2023-05-25T14:07:57.891Z,4.50
2023-05-25T14:10:25.214Z,4.20
2023-05-25T14:12:52.474Z,4.10
2023-05-25T14:15:19.526Z,6.30
2023-05-25T14:17:46.601Z,6.10
2023-05-25T14:20:20.200Z,3.90
2023-05-25T14:22:47.560Z,4.90
2023-05-25T14:25:14.642Z,3.60
2023-05-25T14:27:41.863Z,4.90
2023-05-25T14:30:09.466Z,4.30
2023-05-25T14:32:36.545Z,4.50
2023-05-25T14:35:04.039Z,3.60
2023-05-25T14:37:31.226Z,4.20
2023-05-25T14:40:00.068Z,3.80
2023-05-25T14:42:27.288Z,3.80
2023-05-25T14:44:54.242Z,5.00
2023-05-25T14:47:21.248Z,3.70
2023-05-25T14:49:48.402Z,3.50
2023-05-25T14:52:15.592Z,3.60
2023-05-25T14:54:44.206Z,4.40
2023-05-25T14:57:11.658Z,3.80
2023-05-25T14:59:38.699Z,3.90
2023-05-25T15:02:06.006Z,4.40
2023-05-25T15:04:33.016Z,3.90
2023-05-25T15:07:00.168Z,4.10
2023-05-25T15:09:27.227Z,3.90
2023-05-25T15:11:54.750Z,4.40
2023-05-25T15:14:21.620Z,3.80
2023-05-25T15:16:48.830Z,3.90
2023-05-25T15:19:17.523Z,4.20
2023-05-25T15:21:45.320Z,4.10
2023-05-25T15:24:16.273Z,3.80
2023-05-25T15:26:43.521Z,3.70
2023-05-25T15:29:10.779Z,4.60
2023-05-25T15:31:37.953Z,3.80
2023-05-25T15:34:04.968Z,3.80
2023-05-25T15:36:32.340Z,4.80
2023-05-25T15:38:59.607Z,5.50
2023-05-25T15:41:26.860Z,4.20
2023-05-25T15:44:00.671Z,5.20
2023-05-25T15:46:28.324Z,4.30
2023-05-25T15:48:55.887Z,5.70
2023-05-25T15:51:23.126Z,4.50
2023-05-25T15:53:50.334Z,7.40
2023-05-25T15:56:17.536Z,4.40
2023-05-25T15:58:48.383Z,4.20
2023-05-25T16:01:15.454Z,4.50
2023-05-25T16:03:42.583Z,4.50
2023-05-25T16:06:10.556Z,6.60
2023-05-25T16:08:38.070Z,5.80
2023-05-25T16:11:05.834Z,4.30
2023-05-25T16:13:33.208Z,5.50
2023-05-25T16:16:00.501Z,5.00
2023-05-25T16:18:27.939Z,5.30
2023-05-25T16:20:58.287Z,4.80
2023-05-25T16:23:25.792Z,5.30
2023-05-25T16:25:53.273Z,5.40
2023-05-25T16:28:20.423Z,5.20
2023-05-25T16:30:47.699Z,4.80
2023-05-25T16:33:15.001Z,5.10
2023-05-25T16:35:43.017Z,5.10
2023-05-25T16:38:10.397Z,4.60
2023-05-25T16:40:37.641Z,5.50
2023-05-25T16:43:05.117Z,5.30
2023-05-25T16:45:32.459Z,5.20
2023-05-25T16:47:59.636Z,4.70
2023-05-25T16:50:26.984Z,4.90
2023-05-25T16:52:54.448Z,5.30
2023-05-25T16:55:21.815Z,4.80
2023-05-25T16:57:48.935Z,5.20
2023-05-25T17:00:16.726Z,4.70
2023-05-25T17:02:44.183Z,5.10
2023-05-25T17:05:11.546Z,4.90
2023-05-25T17:07:39.934Z,6.40
2023-05-25T17:10:08.100Z,6.40
2023-05-25T17:12:35.208Z,4.50
2023-05-25T17:15:02.620Z,8.90
2023-05-25T17:17:29.565Z,8.10
2023-05-25T17:19:56.636Z,8.00
2023-05-25T17:22:23.809Z,9.20
2023-05-25T17:24:50.856Z,7.30
2023-05-25T17:27:17.941Z,6.70
2023-05-25T17:29:44.910Z,5.60
2023-05-25T17:32:12.133Z,6.40
2023-05-25T17:34:39.261Z,5.50
2023-05-25T17:37:06.471Z,6.40
2023-05-25T17:39:33.519Z,6.40
2023-05-25T17:42:01.016Z,7.20
2023-05-25T17:44:28.063Z,7.50
2023-05-25T17:46:55.144Z,8.10
2023-05-25T17:49:22.210Z,9.20
2023-05-25T17:51:49.190Z,8.30
2023-05-25T17:54:19.225Z,8.30
2023-05-25T17:56:46.781Z,10.10
2023-05-25T17:59:13.803Z,6.80
2023-05-25T18:01:41.417Z,6.10
2023-05-25T18:04:08.726Z,7.00
2023-05-25T18:06:36.578Z,10.30
2023-05-25T18:09:03.879Z,7.00
2023-05-25T18:11:33.016Z,7.80
2023-05-25T18:14:00.094Z,9.80
2023-05-25T18:16:27.180Z,7.10
2023-05-25T18:18:54.320Z,7.80
2023-05-25T18:21:21.383Z,6.70
2023-05-25T18:23:48.407Z,5.30
2023-05-25T18:26:15.388Z,7.30
2023-05-25T18:28:42.318Z,8.50
2023-05-25T18:31:09.327Z,7.20
2023-05-25T18:33:36.456Z,7.50
2023-05-25T18:36:05.782Z,7.50
2023-05-25T18:38:32.762Z,7.70
2023-05-25T18:40:59.893Z,6.20
2023-05-25T18:43:26.950Z,9.20
2023-05-25T18:45:53.917Z,7.10
2023-05-25T18:48:23.111Z,6.50
2023-05-25T18:50:50.959Z,8.40
2023-05-25T18:53:17.937Z,10.30
2023-05-25T18:55:45.465Z,11.40
2023-05-25T18:58:14.118Z,15.90
2023-05-25T19:00:41.156Z,16.60
2023-05-25T19:03:08.526Z,18.10
2023-05-25T19:05:35.708Z,16.90
2023-05-25T19:08:02.629Z,8.50
2023-05-25T19:10:29.696Z,9.20
2023-05-25T19:12:56.966Z,9.20
2023-05-25T19:15:23.998Z,10.50
2023-05-25T19:17:51.581Z,7.40
2023-05-25T19:20:18.901Z,6.80
2023-05-25T19:22:46.219Z,8.20
2023-05-25T19:25:13.431Z,8.10
2023-05-25T19:27:40.483Z,6.60
2023-05-25T19:30:07.973Z,7.20
2023-05-25T19:32:35.476Z,5.90
2023-05-25T19:35:02.645Z,7.20
2023-05-25T19:37:29.835Z,6.60
2023-05-25T19:39:57.811Z,7.50
2023-05-25T19:42:24.970Z,9.60
2023-05-25T19:44:52.223Z,6.70
2023-05-25T19:47:19.391Z,7.60
2023-05-25T19:49:47.459Z,8.40
2023-05-25T19:52:17.332Z,6.30
2023-05-25T19:54:44.638Z,6.20
2023-05-25T19:57:11.787Z,6.00
2023-05-25T19:59:39.002Z,6.50
2023-05-25T20:02:06.140Z,5.50
2023-05-25T20:04:33.669Z,7.70
2023-05-25T20:07:00.824Z,7.60
2023-05-25T20:09:31.079Z,7.90
2023-05-25T20:11:59.138Z,8.90
2023-05-25T20:14:26.627Z,8.80
2023-05-25T20:16:56.602Z,7.50
2023-05-25T20:19:23.764Z,8.40
2023-05-25T20:21:51.747Z,9.90
2023-05-25T20:24:18.832Z,8.20
2023-05-25T20:26:45.823Z,7.90
2023-05-25T20:29:12.815Z,9.30
2023-05-25T20:31:40.139Z,7.80
2023-05-25T20:34:07.309Z,6.70
2023-05-25T20:36:34.212Z,7.00
2023-05-25T20:39:02.510Z,6.60
2023-05-25T20:41:29.544Z,8.50
2023-05-25T20:43:56.664Z,7.30
2023-05-25T20:46:24.036Z,10.30
2023-05-25T20:48:52.854Z,7.30
2023-05-25T20:51:21.243Z,5.90
2023-05-25T20:53:48.294Z,8.30
2023-05-25T20:56:15.533Z,6.50
2023-05-25T20:58:42.819Z,7.50
2023-05-25T21:01:10.065Z,7.50
2023-05-25T21:03:37.448Z,7.20
2023-05-25T21:06:04.875Z,7.70
2023-05-25T21:08:33.074Z,7.20
2023-05-25T21:11:00.492Z,5.50
2023-05-25T21:13:27.439Z,6.70
2023-05-25T21:15:54.469Z,8.10
2023-05-25T21:20:48.899Z,8.10
2023-05-25T21:23:15.854Z,7.50
2023-05-25T21:25:42.940Z,6.30
2023-05-25T21:28:10.162Z,7.60
2023-05-25T21:30:37.169Z,7.40
2023-05-25T21:33:04.260Z,6.10
2023-05-25T21:35:31.635Z,7.50
2023-05-25T21:37:58.799Z,6.30
2023-05-25T21:40:26.040Z,7.20
2023-05-25T21:42:53.150Z,6.50
2023-05-25T21:45:20.807Z,6.20
2023-05-25T21:47:48.237Z,9.70
2023-05-25T21:50:15.808Z,8.80
2023-05-25T21:52:43.252Z,8.00
2023-05-25T21:55:10.430Z,7.90
2023-05-25T21:57:37.782Z,7.20
2023-05-25T22:00:10.164Z,6.90
2023-05-25T22:02:40.776Z,6.90
2023-05-25T22:05:08.141Z,7.70
2023-05-25T22:07:35.511Z,7.00
2023-05-25T22:10:03.585Z,7.60
2023-05-25T22:12:30.843Z,8.40
2023-05-25T22:14:58.153Z,8.40
2023-05-25T22:17:25.485Z,8.80
2023-05-25T22:20:06.432Z,9.70
2023-05-25T22:22:34.443Z,8.60
2023-05-25T22:25:01.764Z,10.80
2023-05-25T22:27:29.122Z,13.80
2023-05-25T22:29:56.372Z,9.40
2023-05-25T22:32:23.678Z,7.60
2023-05-25T22:34:50.984Z,10.10
2023-05-25T22:37:18.657Z,8.20
2023-05-25T22:39:45.864Z,8.60
2023-05-25T22:42:12.975Z,9.20
2023-05-25T22:44:40.229Z,9.10
2023-05-25T22:47:07.499Z,8.10
2023-05-25T22:49:41.284Z,9.20
2023-05-25T22:52:11.809Z,10.50
2023-05-25T22:54:39.384Z,9.60
2023-05-25T22:57:09.105Z,9.50
2023-05-25T22:59:36.366Z,9.10
2023-05-25T23:02:04.433Z,9.20
2023-05-25T23:04:31.693Z,12.50
2023-05-25T23:06:58.947Z,9.30
2023-05-25T23:09:26.226Z,9.40
2023-05-25T23:11:53.470Z,9.50
2023-05-25T23:14:20.783Z,11.50
2023-05-25T23:16:48.121Z,8.80
2023-05-25T23:19:16.266Z,9.20
2023-05-25T23:21:43.562Z,8.90
2023-05-25T23:24:10.693Z,9.90
2023-05-25T23:26:37.830Z,8.80
2023-05-25T23:29:05.672Z,9.50
2023-05-25T23:31:32.994Z,10.90
2023-05-25T23:34:00.333Z,9.70
2023-05-25T23:36:27.637Z,9.00
2023-05-25T23:38:55.048Z,9.60
2023-05-25T23:41:22.713Z,10.10
2023-05-25T23:43:49.923Z,9.80
2023-05-25T23:46:17.288Z,10.10
2023-05-25T23:48:45.414Z,9.70
2023-05-25T23:51:12.875Z,10.30
2023-05-25T23:53:40.044Z,13.00
2023-05-25T23:56:07.769Z,10.10
2023-05-25T23:58:35.368Z,12.00
